createdAt,value
2023-03-13T00:01:38.938Z,15.02
2023-03-13T00:04:06.112Z,16.40
2023-03-13T00:06:35.620Z,18.88
2023-03-13T00:09:03.924Z,18.55
2023-03-13T00:11:30.541Z,16.98
2023-03-13T00:14:02.235Z,18.10
2023-03-13T00:16:29.225Z,16.98
2023-03-13T00:18:57.109Z,22.33
2023-03-13T00:21:26.152Z,19.52
2023-03-13T00:23:52.893Z,20.98
2023-03-13T00:26:22.191Z,17.23
2023-03-13T00:28:49.249Z,17.10
2023-03-13T00:31:21.703Z,14.80
2023-03-13T00:33:52.258Z,15.68
2023-03-13T00:36:21.279Z,17.77
2023-03-13T00:38:48.482Z,16.05
2023-03-13T00:41:19.987Z,18.00
2023-03-13T00:43:48.131Z,18.52
2023-03-13T00:46:16.473Z,16.15
2023-03-13T00:48:43.103Z,14.35
2023-03-13T00:51:11.060Z,19.88
2023-03-13T00:53:37.700Z,15.25
2023-03-13T00:56:09.714Z,15.65
2023-03-13T00:58:38.413Z,15.13
2023-03-13T01:01:09.926Z,17.33
2023-03-13T01:03:37.710Z,16.85
2023-03-13T01:06:06.151Z,16.42
2023-03-13T01:08:32.869Z,18.05
2023-03-13T01:11:01.418Z,18.27
2023-03-13T01:13:30.020Z,18.45
2023-03-13T01:15:57.499Z,16.25
2023-03-13T01:18:24.169Z,14.98
2023-03-13T01:20:50.700Z,15.90
2023-03-13T01:23:18.330Z,18.73
2023-03-13T01:25:44.927Z,12.60
2023-03-13T01:28:11.512Z,16.70
2023-03-13T01:30:38.116Z,14.10
2023-03-13T01:33:04.679Z,21.63
2023-03-13T01:35:31.537Z,17.10
2023-03-13T01:37:59.028Z,20.13
2023-03-13T01:40:25.753Z,23.45
2023-03-13T01:42:59.595Z,18.20
2023-03-13T01:45:53.689Z,15.77
2023-03-13T01:48:23.905Z,17.50
2023-03-13T01:50:50.635Z,15.30
2023-03-13T01:53:24.404Z,16.73
2023-03-13T01:55:52.402Z,15.45
2023-03-13T01:58:19.160Z,13.75
2023-03-13T02:00:46.556Z,20.15
2023-03-13T02:03:18.093Z,15.30
2023-03-13T02:05:46.493Z,12.88
2023-03-13T02:08:23.291Z,16.05
2023-03-13T02:11:04.659Z,15.05
2023-03-13T02:13:31.226Z,15.15
2023-03-13T02:15:57.907Z,14.50
2023-03-13T02:18:26.086Z,13.70
2023-03-13T02:20:58.457Z,12.15
2023-03-13T02:23:30.032Z,18.90
2023-03-13T02:25:56.747Z,18.45
2023-03-13T02:28:39.188Z,14.48
2023-03-13T02:31:09.854Z,12.25
2023-03-13T02:33:40.419Z,15.40
2023-03-13T02:36:07.849Z,15.27
2023-03-13T02:38:39.850Z,16.48
2023-03-13T02:41:06.745Z,16.52
2023-03-13T02:43:35.218Z,12.27
2023-03-13T02:46:14.972Z,16.98
2023-03-13T02:48:46.946Z,12.50
2023-03-13T02:51:27.149Z,11.77
2023-03-13T02:53:56.630Z,13.35
2023-03-13T02:56:25.950Z,17.48
2023-03-13T02:58:53.649Z,15.90
2023-03-13T03:01:23.691Z,17.38
2023-03-13T03:03:51.225Z,17.77
2023-03-13T03:06:17.832Z,10.38
2023-03-13T03:08:45.575Z,15.07
2023-03-13T03:11:13.070Z,16.45
2023-03-13T03:13:41.099Z,16.42
2023-03-13T03:16:09.705Z,14.27
2023-03-13T03:18:37.926Z,13.88
2023-03-13T03:21:06.343Z,15.07
2023-03-13T03:23:37.627Z,11.77
2023-03-13T03:26:05.489Z,17.58
2023-03-13T03:28:32.632Z,11.55
2023-03-13T03:31:05.648Z,12.85
2023-03-13T03:33:32.260Z,15.68
2023-03-13T03:36:03.745Z,16.02
2023-03-13T03:38:30.364Z,11.57
2023-03-13T03:40:57.087Z,13.73
2023-03-13T03:43:24.178Z,17.13
2023-03-13T03:45:51.105Z,14.73
2023-03-13T03:48:17.888Z,17.08
2023-03-13T03:50:44.542Z,13.43
2023-03-13T03:53:12.550Z,14.82
2023-03-13T03:55:40.157Z,13.30
2023-03-13T03:58:06.775Z,17.27
2023-03-13T04:00:53.421Z,11.52
2023-03-13T04:03:20.069Z,12.93
2023-03-13T04:05:46.671Z,15.40
2023-03-13T04:08:13.586Z,15.27
2023-03-13T04:10:40.452Z,20.45
2023-03-13T04:13:07.353Z,19.08
2023-03-13T04:15:34.069Z,24.02
2023-03-13T04:18:01.171Z,27.75
2023-03-13T04:20:28.921Z,22.88
2023-03-13T04:22:55.528Z,19.52
2023-03-13T04:25:22.166Z,27.10
2023-03-13T04:27:50.960Z,17.17
2023-03-13T04:30:20.217Z,16.95
2023-03-13T04:33:05.320Z,17.35
2023-03-13T04:35:46.476Z,23.88
2023-03-13T04:38:13.106Z,15.38
2023-03-13T04:41:05.527Z,12.98
2023-03-13T04:43:43.353Z,22.63
2023-03-13T04:46:19.447Z,18.45
2023-03-13T04:49:03.409Z,18.50
2023-03-13T04:51:44.910Z,16.13
2023-03-13T04:54:22.462Z,19.85
2023-03-13T04:57:05.149Z,18.48
2023-03-13T04:59:49.744Z,17.52
2023-03-13T05:02:26.149Z,15.40
2023-03-13T05:05:05.491Z,18.33
2023-03-13T05:07:50.693Z,19.92
2023-03-13T05:10:31.278Z,18.00
2023-03-13T05:13:09.676Z,18.10
2023-03-13T05:15:54.856Z,18.33
2023-03-13T05:18:36.675Z,23.23
2023-03-13T05:21:14.812Z,22.67
2023-03-13T05:24:03.166Z,30.75
2023-03-13T05:26:38.860Z,18.33
2023-03-13T05:29:26.936Z,25.52
2023-03-13T05:32:07.902Z,15.73
2023-03-13T05:34:54.757Z,22.20
2023-03-13T05:37:41.427Z,22.98
2023-03-13T05:40:26.601Z,24.75
2023-03-13T05:43:11.545Z,19.27
2023-03-13T05:46:01.166Z,18.95
2023-03-13T05:48:50.804Z,23.38
2023-03-13T05:51:43.282Z,22.80
2023-03-13T05:54:22.517Z,22.00
2023-03-13T05:57:12.270Z,22.88
2023-03-13T05:59:50.262Z,20.83
2023-03-13T06:02:39.348Z,22.40
2023-03-13T06:05:07.899Z,26.40
2023-03-13T06:07:37.730Z,23.52
2023-03-13T06:10:05.464Z,28.23
2023-03-13T06:12:32.104Z,22.55
2023-03-13T06:14:59.531Z,24.25
2023-03-13T06:17:42.144Z,23.33
2023-03-13T06:20:09.416Z,21.52
2023-03-13T06:22:35.957Z,21.08
2023-03-13T06:25:02.618Z,25.00
2023-03-13T06:27:29.169Z,19.45
2023-03-13T06:29:55.738Z,20.98
2023-03-13T06:32:22.359Z,20.63
2023-03-13T06:34:49.006Z,18.83
2023-03-13T06:37:15.851Z,22.92
2023-03-13T06:39:42.497Z,20.77
2023-03-13T06:42:09.177Z,24.17
2023-03-13T06:44:35.764Z,23.30
2023-03-13T06:47:02.470Z,25.80
2023-03-13T06:49:29.056Z,23.35
2023-03-13T06:51:58.795Z,15.57
2023-03-13T06:54:25.506Z,21.73
2023-03-13T06:56:52.120Z,27.85
2023-03-13T06:59:18.665Z,17.92
2023-03-13T07:01:46.059Z,26.05
2023-03-13T07:04:13.080Z,26.55
2023-03-13T07:06:39.767Z,18.90
2023-03-13T07:09:06.350Z,20.08
2023-03-13T07:11:39.021Z,23.50
2023-03-13T07:14:15.978Z,23.98
2023-03-13T07:16:49.775Z,20.73
2023-03-13T07:19:16.672Z,23.30
2023-03-13T07:21:44.237Z,28.65
2023-03-13T07:24:10.944Z,25.95
2023-03-13T07:26:37.826Z,26.60
2023-03-13T07:29:05.568Z,23.73
2023-03-13T07:31:34.167Z,22.45
2023-03-13T07:34:01.023Z,17.52
2023-03-13T07:36:28.083Z,18.67
2023-03-13T07:38:54.641Z,24.15
2023-03-13T07:41:21.379Z,23.73
2023-03-13T07:43:47.922Z,21.88
2023-03-13T07:46:18.681Z,25.98
2023-03-13T07:48:45.970Z,23.85
2023-03-13T07:51:30.272Z,18.02
2023-03-13T07:54:03.622Z,24.83
2023-03-13T07:56:30.167Z,16.85
2023-03-13T07:58:56.806Z,20.13
2023-03-13T08:01:27.845Z,23.73
2023-03-13T08:03:56.242Z,20.65
2023-03-13T08:06:27.365Z,21.92
2023-03-13T08:08:57.101Z,18.15
2023-03-13T08:11:25.369Z,19.23
2023-03-13T08:13:53.159Z,23.85
2023-03-13T08:16:38.092Z,24.33
2023-03-13T08:19:06.025Z,17.38
2023-03-13T08:21:35.312Z,27.33
2023-03-13T08:24:06.949Z,20.13
2023-03-13T08:26:35.640Z,25.08
2023-03-13T08:29:05.010Z,20.63
2023-03-13T08:31:34.367Z,12.93
2023-03-13T08:34:01.201Z,22.95
2023-03-13T08:36:30.749Z,19.63
2023-03-13T08:38:59.867Z,20.27
2023-03-13T08:41:32.260Z,17.23
2023-03-13T08:43:59.312Z,19.48
2023-03-13T08:46:26.054Z,16.15
2023-03-13T08:48:54.507Z,22.10
2023-03-13T08:51:23.877Z,17.08
2023-03-13T08:53:50.959Z,21.55
2023-03-13T08:56:19.546Z,18.65
2023-03-13T08:58:53.805Z,19.92
2023-03-13T09:01:22.119Z,17.77
2023-03-13T09:03:49.445Z,20.85
2023-03-13T09:06:16.283Z,17.50
2023-03-13T09:08:43.081Z,19.85
2023-03-13T09:11:14.520Z,18.38
2023-03-13T09:13:44.038Z,15.70
2023-03-13T09:16:13.198Z,12.98
2023-03-13T09:18:39.953Z,11.85
2023-03-13T09:21:10.094Z,14.80
2023-03-13T09:23:36.902Z,13.68
2023-03-13T09:26:03.760Z,12.15
2023-03-13T09:28:30.786Z,13.48
2023-03-13T09:31:07.160Z,14.38
2023-03-13T09:33:33.888Z,9.02
2023-03-13T09:36:00.530Z,9.48
2023-03-13T09:38:27.392Z,11.55
2023-03-13T09:41:05.585Z,12.00
2023-03-13T09:43:58.692Z,13.15
2023-03-13T09:46:31.378Z,11.18
2023-03-13T09:49:00.593Z,10.82
2023-03-13T09:51:36.694Z,13.15
2023-03-13T09:54:09.713Z,11.82
2023-03-13T09:56:42.468Z,10.90
2023-03-13T09:59:51.352Z,13.63
2023-03-13T10:02:22.117Z,10.55
2023-03-13T10:04:53.335Z,11.27
2023-03-13T10:07:21.393Z,12.25
2023-03-13T10:09:48.003Z,8.10
2023-03-13T10:12:21.427Z,10.90
2023-03-13T10:15:03.471Z,11.32
2023-03-13T10:17:33.491Z,9.18
2023-03-13T10:20:10.807Z,8.45
2023-03-13T10:22:38.007Z,11.80
2023-03-13T10:25:20.016Z,9.25
2023-03-13T10:27:51.175Z,13.13
2023-03-13T10:30:31.909Z,12.57
2023-03-13T10:33:19.360Z,8.77
2023-03-13T10:35:46.285Z,7.95
2023-03-13T10:38:19.175Z,9.68
2023-03-13T10:40:57.884Z,9.30
2023-03-13T10:43:25.620Z,11.48
2023-03-13T10:45:52.820Z,5.00
2023-03-13T10:48:25.394Z,6.15
2023-03-13T10:50:54.680Z,6.35
2023-03-13T10:53:25.118Z,5.00
2023-03-13T10:56:16.297Z,4.72
2023-03-13T10:58:44.890Z,5.10
2023-03-13T11:01:22.467Z,7.40
2023-03-13T11:03:50.852Z,5.80
2023-03-13T11:06:32.488Z,6.57
2023-03-13T11:09:12.774Z,3.63
2023-03-13T11:11:51.420Z,5.13
2023-03-13T11:14:20.403Z,4.03
2023-03-13T11:16:52.178Z,3.97
2023-03-13T11:19:25.919Z,3.47
2023-03-13T11:22:14.964Z,6.25
2023-03-13T11:24:50.543Z,3.35
2023-03-13T11:27:41.427Z,4.45
2023-03-13T11:30:41.466Z,2.17
2023-03-13T11:33:40.878Z,3.95
2023-03-13T11:36:33.770Z,2.50
2023-03-13T11:39:09.396Z,4.00
2023-03-13T11:41:55.167Z,3.05
2023-03-13T11:44:39.822Z,3.90
2023-03-13T11:47:49.050Z,4.75
2023-03-13T11:50:24.455Z,2.80
2023-03-13T11:52:59.843Z,5.47
2023-03-13T11:55:55.068Z,1.10
2023-03-13T11:58:41.961Z,2.45
2023-03-13T12:01:12.096Z,3.08
2023-03-13T12:03:56.495Z,2.13
2023-03-13T12:06:35.482Z,1.40
2023-03-13T12:09:12.771Z,1.58
2023-03-13T12:11:54.722Z,2.00
2023-03-13T12:14:43.766Z,3.00
2023-03-13T12:17:15.934Z,2.58
2023-03-13T12:19:49.530Z,1.83
2023-03-13T12:22:24.897Z,0.90
2023-03-13T12:25:15.396Z,0.77
2023-03-13T12:27:46.767Z,2.15
2023-03-13T12:30:22.933Z,2.80
2023-03-13T12:32:56.751Z,2.15
2023-03-13T12:35:28.983Z,1.00
2023-03-13T12:38:28.505Z,0.73
2023-03-13T12:41:24.783Z,1.75
2023-03-13T12:44:07.852Z,0.80
2023-03-13T12:46:43.084Z,1.98
2023-03-13T12:49:33.093Z,0.90
2023-03-13T12:52:21.442Z,2.22
2023-03-13T12:55:08.048Z,0.95
2023-03-13T12:58:10.619Z,0.95
2023-03-13T13:00:40.245Z,1.13
2023-03-13T13:03:22.689Z,3.22
2023-03-13T13:06:00.109Z,1.33
2023-03-13T13:08:27.348Z,1.50
2023-03-13T13:10:54.057Z,1.38
2023-03-13T13:13:31.750Z,1.88
2023-03-13T13:16:01.854Z,2.88
2023-03-13T13:18:30.662Z,0.70
2023-03-13T13:21:03.278Z,1.92
2023-03-13T13:23:38.950Z,2.70
2023-03-13T13:26:29.577Z,1.15
2023-03-13T13:29:22.442Z,2.20
2023-03-13T13:31:51.721Z,0.75
2023-03-13T13:34:31.100Z,1.08
2023-03-13T13:36:58.480Z,1.15
2023-03-13T13:39:48.270Z,0.63
2023-03-13T13:42:30.754Z,2.00
2023-03-13T13:45:01.823Z,2.60
2023-03-13T13:47:32.383Z,2.28
2023-03-13T13:50:00.561Z,2.22
2023-03-13T13:52:38.947Z,1.40
2023-03-13T13:55:30.425Z,1.15
2023-03-13T13:58:12.621Z,1.45
2023-03-13T14:00:45.796Z,1.05
2023-03-13T14:03:19.401Z,3.70
2023-03-13T14:05:48.023Z,1.98
2023-03-13T14:08:21.123Z,1.30
2023-03-13T14:11:24.153Z,1.23
2023-03-13T14:14:09.737Z,1.10
2023-03-13T14:16:37.637Z,2.67
2023-03-13T14:19:04.574Z,3.28
2023-03-13T14:21:31.174Z,1.67
2023-03-13T14:23:58.049Z,2.80
2023-03-13T14:26:27.588Z,1.40
2023-03-13T14:28:55.639Z,1.75
2023-03-13T14:31:28.721Z,1.85
2023-03-13T14:33:56.894Z,2.13
2023-03-13T14:36:23.674Z,2.25
2023-03-13T14:38:57.375Z,1.33
2023-03-13T14:41:33.467Z,1.98
2023-03-13T14:44:10.593Z,1.33
2023-03-13T14:46:40.791Z,2.88
2023-03-13T14:49:14.200Z,1.58
2023-03-13T14:51:41.011Z,4.10
2023-03-13T14:54:26.181Z,4.55
2023-03-13T14:57:23.616Z,2.20
2023-03-13T14:59:51.718Z,1.00
2023-03-13T15:02:27.188Z,3.83
2023-03-13T15:04:59.731Z,1.17
2023-03-13T15:07:29.691Z,1.40
2023-03-13T15:09:57.483Z,5.18
2023-03-13T15:12:24.332Z,1.08
2023-03-13T15:14:52.812Z,3.53
2023-03-13T15:17:23.420Z,3.33
2023-03-13T15:19:54.936Z,2.47
2023-03-13T15:22:28.489Z,4.20
2023-03-13T15:25:05.763Z,2.75
2023-03-13T15:27:33.818Z,2.15
2023-03-13T15:30:00.507Z,1.73
2023-03-13T15:32:36.424Z,1.65
2023-03-13T15:35:22.544Z,2.58
2023-03-13T15:37:49.125Z,1.88
2023-03-13T15:40:17.190Z,4.05
2023-03-13T15:42:43.858Z,1.33
2023-03-13T15:45:10.642Z,2.58
2023-03-13T15:47:37.307Z,1.02
2023-03-13T15:50:04.377Z,1.42
2023-03-13T15:52:31.301Z,2.35
2023-03-13T15:54:58.002Z,5.68
2023-03-13T15:57:26.497Z,2.03
2023-03-13T15:59:53.643Z,1.33
2023-03-13T16:02:24.283Z,1.60
2023-03-13T16:04:51.611Z,2.40
2023-03-13T16:07:20.744Z,2.28
2023-03-13T16:09:48.056Z,1.60
2023-03-13T16:12:14.808Z,4.60
2023-03-13T16:14:41.596Z,1.67
2023-03-13T16:17:18.948Z,1.90
2023-03-13T16:19:46.719Z,2.17
2023-03-13T16:22:14.482Z,1.70
2023-03-13T16:24:41.373Z,3.80
2023-03-13T16:27:16.445Z,2.35
2023-03-13T16:29:43.982Z,5.88
2023-03-13T16:32:16.031Z,3.25
2023-03-13T16:34:43.152Z,2.13
2023-03-13T16:37:13.758Z,2.15
2023-03-13T16:39:40.533Z,2.65
2023-03-13T16:42:07.707Z,2.25
2023-03-13T16:44:34.290Z,2.05
2023-03-13T16:47:05.965Z,2.03
2023-03-13T16:49:33.026Z,4.00
2023-03-13T16:51:59.568Z,3.13
2023-03-13T16:54:26.133Z,1.92
2023-03-13T16:56:52.720Z,1.33
2023-03-13T16:59:19.752Z,2.45
2023-03-13T17:01:47.234Z,4.40
2023-03-13T17:04:13.994Z,1.80
2023-03-13T17:06:42.548Z,2.22
2023-03-13T17:09:14.496Z,1.52
2023-03-13T17:11:41.856Z,2.60
2023-03-13T17:14:08.557Z,1.67
2023-03-13T17:16:36.944Z,3.63
2023-03-13T17:19:04.085Z,2.00
2023-03-13T17:21:32.124Z,1.63
2023-03-13T17:24:02.130Z,2.28
2023-03-13T17:26:33.071Z,2.40
2023-03-13T17:29:00.551Z,1.40
2023-03-13T17:31:28.164Z,1.55
2023-03-13T17:33:54.808Z,2.17
2023-03-13T17:36:27.292Z,2.05
2023-03-13T17:39:01.437Z,3.35
2023-03-13T17:41:30.001Z,1.10
2023-03-13T17:43:56.912Z,2.35
2023-03-13T17:46:26.021Z,1.92
2023-03-13T17:48:53.850Z,3.58
2023-03-13T17:51:22.592Z,3.38
2023-03-13T17:53:49.658Z,3.30
2023-03-13T17:56:27.599Z,2.70
2023-03-13T17:58:57.857Z,4.47
2023-03-13T18:01:26.714Z,2.10
2023-03-13T18:03:53.705Z,6.15
2023-03-13T18:06:50.546Z,3.17
2023-03-13T18:09:20.802Z,2.00
2023-03-13T18:11:48.387Z,1.73
2023-03-13T18:14:15.075Z,1.88
2023-03-13T18:16:48.005Z,2.45
2023-03-13T18:19:25.122Z,2.80
2023-03-13T18:21:54.200Z,2.40
2023-03-13T18:24:21.594Z,2.10
2023-03-13T18:26:49.389Z,1.65
2023-03-13T18:29:26.445Z,5.88
2023-03-13T18:31:58.998Z,3.15
2023-03-13T18:34:25.919Z,2.47
2023-03-13T18:36:53.033Z,2.13
2023-03-13T18:39:20.301Z,1.63
2023-03-13T18:41:48.427Z,2.88
2023-03-13T18:44:16.295Z,2.45
2023-03-13T18:46:43.676Z,3.67
2023-03-13T18:49:13.320Z,1.65
2023-03-13T18:51:40.010Z,5.03
2023-03-13T18:54:06.584Z,1.77
2023-03-13T18:56:33.201Z,2.45
2023-03-13T18:59:01.617Z,3.17
2023-03-13T19:01:30.025Z,5.20
2023-03-13T19:03:59.422Z,3.15
2023-03-13T19:06:36.845Z,2.22
2023-03-13T19:09:40.957Z,1.40
2023-03-13T19:12:02.103Z,3.42
2023-03-13T19:14:28.777Z,2.80
2023-03-13T19:16:57.629Z,4.15
2023-03-13T19:19:26.351Z,4.50
2023-03-13T19:21:56.279Z,5.47
2023-03-13T19:24:26.602Z,12.88
2023-03-13T19:26:59.017Z,6.70
2023-03-13T19:29:27.732Z,8.73
2023-03-13T19:31:59.231Z,3.33
2023-03-13T19:34:25.902Z,5.05
2023-03-13T19:36:53.475Z,2.53
2023-03-13T19:39:25.297Z,3.15
2023-03-13T19:41:52.938Z,3.00
2023-03-13T19:44:20.182Z,3.97
2023-03-13T19:46:47.142Z,2.67
2023-03-13T19:49:16.646Z,2.08
2023-03-13T19:51:43.646Z,2.35
2023-03-13T19:54:10.846Z,2.45
2023-03-13T19:56:39.389Z,2.47
2023-03-13T19:59:28.166Z,5.15
2023-03-13T20:01:57.686Z,2.97
2023-03-13T20:04:25.193Z,1.98
2023-03-13T20:06:51.852Z,3.72
2023-03-13T20:09:20.262Z,2.70
2023-03-13T20:11:46.897Z,4.20
2023-03-13T20:14:13.546Z,2.95
2023-03-13T20:16:40.155Z,2.10
2023-03-13T20:19:06.849Z,3.28
2023-03-13T20:21:35.648Z,2.88
2023-03-13T20:24:02.515Z,4.07
2023-03-13T20:26:29.498Z,3.00
2023-03-13T20:28:57.090Z,3.60
2023-03-13T20:31:29.474Z,5.13
2023-03-13T20:33:57.035Z,5.18
2023-03-13T20:36:24.249Z,5.80
2023-03-13T20:38:50.883Z,5.90
2023-03-13T20:41:19.266Z,4.47
2023-03-13T20:43:45.833Z,5.32
2023-03-13T20:46:12.557Z,5.60
2023-03-13T20:48:39.828Z,5.15
2023-03-13T20:51:07.904Z,7.50
2023-03-13T20:53:39.388Z,6.03
2023-03-13T20:56:08.071Z,6.53
2023-03-13T20:58:35.558Z,6.38
2023-03-13T21:01:03.717Z,7.70
2023-03-13T21:03:35.166Z,5.47
2023-03-13T21:06:12.926Z,4.43
2023-03-13T21:08:39.779Z,4.32
2023-03-13T21:11:14.426Z,4.78
2023-03-13T21:13:41.193Z,5.25
2023-03-13T21:16:08.277Z,3.47
2023-03-13T21:18:35.105Z,2.20
2023-03-13T21:21:06.147Z,2.90
2023-03-13T21:23:32.926Z,3.63
2023-03-13T21:26:00.676Z,3.25
2023-03-13T21:28:28.278Z,4.28
2023-03-13T21:30:55.909Z,2.65
2023-03-13T21:33:22.882Z,3.35
2023-03-13T21:35:50.218Z,2.97
2023-03-13T21:38:17.716Z,7.53
2023-03-13T21:40:44.458Z,2.72
2023-03-13T21:43:11.042Z,2.30
2023-03-13T21:45:37.746Z,2.88
2023-03-13T21:48:04.436Z,2.20
2023-03-13T21:50:32.716Z,1.55
2023-03-13T21:52:59.351Z,1.48
2023-03-13T21:55:25.964Z,1.73
2023-03-13T21:57:52.596Z,5.63
2023-03-13T22:00:19.337Z,2.40
2023-03-13T22:02:46.003Z,2.05
2023-03-13T22:05:12.677Z,2.85
2023-03-13T22:07:39.282Z,1.25
2023-03-13T22:10:06.190Z,1.55
2023-03-13T22:12:32.742Z,3.03
2023-03-13T22:14:59.493Z,3.47
2023-03-13T22:17:26.054Z,1.48
2023-03-13T22:19:52.613Z,4.07
2023-03-13T22:22:21.989Z,3.13
2023-03-13T22:24:48.863Z,1.73
2023-03-13T22:27:15.696Z,2.35
2023-03-13T22:29:42.242Z,0.93
2023-03-13T22:32:09.707Z,3.55
2023-03-13T22:34:36.388Z,2.67
2023-03-13T22:37:03.071Z,1.80
2023-03-13T22:39:29.661Z,1.48
2023-03-13T22:41:56.438Z,1.83
2023-03-13T22:44:22.985Z,4.18
2023-03-13T22:46:49.801Z,2.33
2023-03-13T22:49:16.393Z,1.00
2023-03-13T22:51:42.962Z,1.58
2023-03-13T22:54:09.519Z,2.22
2023-03-13T22:56:36.286Z,1.95
2023-03-13T22:59:03.689Z,1.35
2023-03-13T23:01:30.408Z,1.25
2023-03-13T23:03:57.018Z,6.50
2023-03-13T23:06:25.385Z,1.05
2023-03-13T23:08:52.539Z,1.95
2023-03-13T23:11:19.649Z,0.70
2023-03-13T23:13:46.301Z,0.70
2023-03-13T23:16:13.213Z,1.08
2023-03-13T23:18:41.384Z,1.35
2023-03-13T23:21:10.855Z,0.47
2023-03-13T23:23:37.612Z,1.65
2023-03-13T23:26:06.157Z,3.88
2023-03-13T23:28:34.213Z,0.90
2023-03-13T23:31:03.083Z,1.75
2023-03-13T23:33:29.796Z,1.00
2023-03-13T23:35:56.401Z,1.83
2023-03-13T23:38:25.417Z,0.77
2023-03-13T23:40:53.233Z,0.80
2023-03-13T23:43:19.787Z,1.02
2023-03-13T23:45:46.355Z,1.00
2023-03-13T23:48:12.997Z,1.45
2023-03-13T23:50:39.628Z,1.50
2023-03-13T23:53:06.198Z,1.33
2023-03-13T23:55:32.793Z,0.70
2023-03-13T23:57:59.560Z,1.90
